Time;durP1;ratioP1;P1;durP2;ratioP2;P2;SDS_P1;SDS_P2;PMS_P1;PMS_P2;Temp;Humidity;BMP_temperature;BMP_pressure;BME280_temperature;BME280_humidity;BME280_pressure;Samples;Min_cycle;Max_cycle;Signal;HPM_P1;HPM_P2
2021/11/08 00:02:09;;;;;;;;;;;;;;;;;;;;;
2021/11/08 00:07:48;;;;;;;;;22.00;19.67;;;;;;;;4912147;28;45473;-82
2021/11/08 00:10:13;;;;;;;;;23.67;21.33;;;;;;;;4909729;28;45445;-82
2021/11/08 00:13:26;;;;;;;;;25.33;25.33;;;;;;;;4895221;28;46849;-83
2021/11/08 00:19:17;;;;;;;;;19.33;19.33;;;;;;;;4855586;29;45497;-84
2021/11/08 00:21:48;;;;;;;;;25.33;21.33;;;;;;;;4855257;29;45456;-83
2021/11/08 00:24:42;;;;;;;;;;;;;;;;;;;;;
2021/11/08 00:27:08;;;;;;;;;23.33;21.67;;;;;;;;4853811;29;72820;-83
2021/11/08 00:30:05;;;;;;;;;;;;;;;;;;;;;
2021/11/08 00:35:09;;;;;;;;;24.33;24.00;;;;;;;;5062688;23;45121;-84
2021/11/08 00:37:35;;;;;;;;;27.67;22.67;;;;;;;;4932819;28;44876;-83
2021/11/08 00:40:00;;;;;;;;;23.00;21.33;;;;;;;;4931825;28;45432;-84
2021/11/08 00:42:28;;;;;;;;;25.00;22.67;;;;;;;;4944368;28;45483;-84
2021/11/08 00:45:05;;;;;;;;;;;;;;;;;;;;;
2021/11/08 00:47:41;;;;;;;;;22.00;21.67;;;;;;;;4930313;28;72200;-82
2021/11/08 00:50:07;;;;;;;;;22.67;19.33;;;;;;;;4913174;28;45714;-82
2021/11/08 00:52:36;;;;;;;;;19.67;19.00;;;;;;;;4930821;28;45814;-83
2021/11/08 00:55:01;;;;;;;;;26.00;23.33;;;;;;;;4931084;28;45470;-82
2021/11/08 00:57:34;;;;;;;;;24.33;22.00;;;;;;;;4913575;28;45429;-82
2021/11/08 01:00:27;;;;;;;;;18.00;17.00;;;;;;;;4915407;28;45547;-82
2021/11/08 01:02:53;;;;;;;;;18.67;18.33;;;;;;;;4916019;28;45630;-82
2021/11/08 01:05:19;;;;;;;;;27.33;18.67;;;;;;;;4912874;28;47905;-83
2021/11/08 01:07:48;;;;;;;;;15.00;14.00;;;;;;;;4913176;28;45275;-82
2021/11/08 01:10:15;;;;;;;;;17.33;14.00;;;;;;;;4911860;28;45526;-82
2021/11/08 01:12:40;;;;;;;;;15.00;14.67;;;;;;;;4911481;28;45328;-83
2021/11/08 01:15:10;;;;;;;;;16.33;13.33;;;;;;;;4910833;28;46797;-83
2021/11/08 01:17:50;;;;;;;;;16.33;14.33;;;;;;;;4912469;28;45453;-82
2021/11/08 01:20:24;;;;;;;;;16.33;16.33;;;;;;;;4913437;28;45441;-82
2021/11/08 01:25:57;;;;;;;;;20.00;19.33;;;;;;;;4871380;29;45637;-83
2021/11/08 01:28:30;;;;;;;;;16.33;13.67;;;;;;;;4854025;29;45476;-83
2021/11/08 01:30:56;;;;;;;;;17.33;15.33;;;;;;;;4854629;29;45509;-83
2021/11/08 01:33:23;;;;;;;;;18.00;18.00;;;;;;;;4852691;29;45868;-82
2021/11/08 01:35:59;;;;;;;;;17.67;14.33;;;;;;;;4851846;29;47269;-83
2021/11/08 01:38:35;;;;;;;;;13.67;13.33;;;;;;;;4853462;29;45799;-82
2021/11/08 01:47:31;;;;;;;;;18.67;13.33;;;;;;;;4761560;29;45544;-82
2021/11/08 01:50:33;;;;;;;;;;;;;;;;;;;;;
2021/11/08 01:53:00;;;;;;;;;15.00;13.33;;;;;;;;4760495;29;67450;-82
2021/11/08 01:55:33;;;;;;;;;18.33;15.00;;;;;;;;4746450;29;45469;-82
2021/11/08 01:58:10;;;;;;;;;13.00;12.33;;;;;;;;4760862;29;48009;-82
2021/11/08 02:00:37;;;;;;;;;13.67;13.33;;;;;;;;4760463;29;45526;-80
2021/11/08 02:03:02;;;;;;;;;18.33;16.00;;;;;;;;4787083;29;45486;-81
2021/11/08 02:05:28;;;;;;;;;18.67;17.00;;;;;;;;4803360;29;45520;-81
2021/11/08 02:07:53;;;;;;;;;19.00;16.67;;;;;;;;4785317;29;47261;-81
2021/11/08 02:13:23;;;;;;;;;15.33;15.33;;;;;;;;4799050;29;45484;-81
2021/11/08 02:15:51;;;;;;;;;17.00;16.67;;;;;;;;4784982;29;45520;-81
2021/11/08 02:18:19;;;;;;;;;17.33;15.67;;;;;;;;4808465;29;47092;-81
2021/11/08 02:20:55;;;;;;;;;18.00;17.67;;;;;;;;4872654;29;45417;-82
2021/11/08 02:23:26;;;;;;;;;20.67;18.33;;;;;;;;4898619;28;45385;-82
2021/11/08 02:25:59;;;;;;;;;18.33;13.67;;;;;;;;4898544;29;45871;-81
2021/11/08 02:28:29;;;;;;;;;15.00;14.33;;;;;;;;4898651;29;47070;-81
2021/11/08 02:30:58;;;;;;;;;12.67;11.33;;;;;;;;4897188;29;44913;-81
2021/11/08 02:33:27;;;;;;;;;11.33;11.33;;;;;;;;4899526;29;45537;-82
2021/11/08 02:35:52;;;;;;;;;20.33;13.00;;;;;;;;4916869;28;45539;-82
2021/11/08 02:38:39;;;;;;;;;17.33;12.67;;;;;;;;4916957;28;45500;-82
2021/11/08 02:41:05;;;;;;;;;16.33;16.33;;;;;;;;4915373;29;44800;-82
2021/11/08 02:43:33;;;;;;;;;17.67;16.67;;;;;;;;4914550;28;45425;-82
2021/11/08 02:46:08;;;;;;;;;12.33;12.33;;;;;;;;4897219;29;45470;-81
2021/11/08 02:48:57;;;;;;;;;;;;;;;;;;;;;
2021/11/08 02:51:24;;;;;;;;;13.00;13.00;;;;;;;;4912987;28;72253;-82
2021/11/08 02:53:54;;;;;;;;;15.00;13.67;;;;;;;;4915680;28;45346;-81
2021/11/08 02:56:21;;;;;;;;;17.33;12.67;;;;;;;;4900078;29;45426;-82
2021/11/08 02:58:53;;;;;;;;;14.67;14.67;;;;;;;;4900319;29;46955;-82
2021/11/08 03:01:36;;;;;;;;;15.67;13.67;;;;;;;;4901026;29;45241;-82
2021/11/08 03:04:02;;;;;;;;;14.00;14.00;;;;;;;;4918155;28;45501;-82
2021/11/08 03:06:32;;;;;;;;;13.00;12.00;;;;;;;;4901720;29;45600;-81
2021/11/08 03:09:11;;;;;;;;;14.67;13.00;;;;;;;;4902082;29;47378;-81
2021/11/08 03:11:49;;;;;;;;;15.00;13.33;;;;;;;;4918481;29;44786;-81
2021/11/08 03:14:17;;;;;;;;;16.00;14.33;;;;;;;;4902753;29;45405;-81
2021/11/08 03:21:53;;;;;;;;;11.67;9.00;;;;;;;;4917338;28;44784;-81
2021/11/08 03:24:41;;;;;;;;;13.67;12.67;;;;;;;;4902935;29;45449;-81
2021/11/08 03:27:18;;;;;;;;;15.33;13.00;;;;;;;;4919458;28;45374;-82
2021/11/08 03:29:45;;;;;;;;;15.67;12.33;;;;;;;;4903034;29;47644;-82
2021/11/08 03:32:20;;;;;;;;;13.00;12.00;;;;;;;;4903245;29;45488;-82
2021/11/08 03:35:03;;;;;;;;;10.33;10.33;;;;;;;;4901854;29;45523;-82
2021/11/08 03:37:42;;;;;;;;;17.00;14.00;;;;;;;;4902179;29;45636;-81
2021/11/08 03:40:18;;;;;;;;;18.33;13.00;;;;;;;;4900387;29;45502;-81
2021/11/08 03:42:55;;;;;;;;;14.00;13.00;;;;;;;;4900999;29;44832;-82
2021/11/08 03:45:26;;;;;;;;;9.00;9.00;;;;;;;;4918457;29;44824;-81
2021/11/08 03:47:54;;;;;;;;;15.33;11.00;;;;;;;;4902206;29;45549;-81
2021/11/08 03:50:20;;;;;;;;;12.33;12.00;;;;;;;;4899893;29;47773;-81
2021/11/08 03:52:46;;;;;;;;;16.67;13.67;;;;;;;;4900377;29;45815;-82
2021/11/08 03:55:12;;;;;;;;;11.67;11.67;;;;;;;;4901177;29;45403;-82
2021/11/08 03:57:37;;;;;;;;;18.00;15.33;;;;;;;;4901262;29;45387;-82
2021/11/08 04:00:13;;;;;;;;;12.00;11.67;;;;;;;;4900150;29;46750;-82
2021/11/08 04:02:42;;;;;;;;;13.00;13.00;;;;;;;;4900080;29;45390;-82
2021/11/08 04:05:13;;;;;;;;;12.67;12.33;;;;;;;;4898320;29;44914;-81
2021/11/08 04:07:38;;;;;;;;;16.67;13.67;;;;;;;;4916558;28;44737;-81
2021/11/08 04:10:05;;;;;;;;;9.33;9.33;;;;;;;;4898355;29;47582;-82
2021/11/08 04:12:30;;;;;;;;;15.33;12.67;;;;;;;;4899983;28;45537;-82
2021/11/08 04:14:56;;;;;;;;;15.67;14.00;;;;;;;;4917815;28;45066;-81
2021/11/08 04:20:25;;;;;;;;;12.00;12.00;;;;;;;;4917654;28;45382;-82
2021/11/08 04:22:51;;;;;;;;;12.67;12.67;;;;;;;;4900166;28;45384;-82
2021/11/08 04:25:24;;;;;;;;;13.67;9.33;;;;;;;;4901872;28;44855;-81
2021/11/08 04:27:50;;;;;;;;;13.00;13.00;;;;;;;;4900272;28;45467;-81
2021/11/08 04:30:19;;;;;;;;;12.00;12.00;;;;;;;;4913177;29;47320;-82
2021/11/08 04:39:27;;;;;;;;;15.67;13.00;;;;;;;;4916861;28;45568;-82
2021/11/08 04:50:25;;;;;;;;;13.00;11.67;;;;;;;;4901172;28;45533;-82
2021/11/08 04:55:49;;;;;;;;;16.67;15.33;;;;;;;;4915998;28;45385;-82
2021/11/08 04:58:57;;;;;;;;;12.00;11.00;;;;;;;;4899860;29;45409;-82
2021/11/08 05:31:57;;;;;;;;;16.33;16.33;;;;;;;;4825534;29;44794;-83
2021/11/08 05:34:25;;;;;;;;;14.00;12.67;;;;;;;;4856470;29;45820;-82
2021/11/08 05:36:50;;;;;;;;;14.67;14.67;;;;;;;;4857309;29;45589;-82
2021/11/08 05:39:17;;;;;;;;;16.67;13.00;;;;;;;;4857960;29;45469;-82
2021/11/08 05:41:42;;;;;;;;;14.00;13.00;;;;;;;;4857757;29;45418;-82
2021/11/08 05:44:08;;;;;;;;;13.33;12.00;;;;;;;;4856125;29;45843;-81
2021/11/08 05:47:01;;;;;;;;;14.33;12.67;;;;;;;;4858319;29;45377;-81
2021/11/08 05:49:34;;;;;;;;;16.33;11.00;;;;;;;;4854194;29;45472;-81
2021/11/08 05:52:00;;;;;;;;;13.33;12.00;;;;;;;;4853965;29;45629;-81
2021/11/08 05:54:25;;;;;;;;;20.00;18.00;;;;;;;;4854533;29;45455;-81
2021/11/08 06:49:49;;;;;;;;;13.00;12.00;;;;;;;;4918002;29;45406;-81
2021/11/08 06:52:16;;;;;;;;;16.33;13.67;;;;;;;;4918632;29;45418;-82
2021/11/08 06:54:47;;;;;;;;;13.00;13.00;;;;;;;;4900652;29;45735;-82
2021/11/08 06:57:16;;;;;;;;;12.33;12.33;;;;;;;;4897198;29;45483;-81
2021/11/08 07:00:16;;;;;;;;;18.67;17.00;;;;;;;;4920545;29;45575;-82
2021/11/08 07:02:42;;;;;;;;;11.33;9.67;;;;;;;;4902259;29;46343;-81
2021/11/08 07:05:07;;;;;;;;;14.33;14.00;;;;;;;;4902375;29;45833;-81
2021/11/08 07:07:34;;;;;;;;;17.00;15.00;;;;;;;;4901926;29;45704;-81
2021/11/08 07:10:00;;;;;;;;;13.00;12.00;;;;;;;;4918639;28;44785;-83
2021/11/08 07:12:52;;;;;;;;;18.00;14.00;;;;;;;;4902086;29;46604;-82
2021/11/08 07:15:23;;;;;;;;;15.33;12.67;;;;;;;;4900606;29;45438;-81
2021/11/08 07:17:58;;;;;;;;;16.00;16.00;;;;;;;;4901698;29;45378;-82
2021/11/08 07:20:24;;;;;;;;;16.67;13.33;;;;;;;;4919081;29;45823;-82
2021/11/08 07:22:50;;;;;;;;;17.33;12.00;;;;;;;;4902740;29;46846;-82
2021/11/08 07:25:19;;;;;;;;;16.67;16.67;;;;;;;;4900576;28;45649;-82
2021/11/08 07:31:21;;;;;;;;;15.00;13.67;;;;;;;;4917224;28;44721;-82
2021/11/08 07:33:42;;;;;;;;;20.67;16.67;;;;;;;;4915105;29;45518;-82
2021/11/08 07:36:18;;;;;;;;;;;;;;;;;;;;;
2021/11/08 07:38:49;;;;;;;;;17.67;17.67;;;;;;;;4915040;28;68987;-82
2021/11/08 07:44:38;;;;;;;;;16.00;16.00;;;;;;;;4917098;29;45448;-82
2021/11/08 07:47:09;;;;;;;;;16.33;13.67;;;;;;;;4897601;29;44894;-83
2021/11/08 07:49:52;;;;;;;;;16.67;12.33;;;;;;;;4914547;29;45753;-81
2021/11/08 07:52:21;;;;;;;;;13.67;13.67;;;;;;;;4914454;29;45332;-82
2021/11/08 08:00:46;;;;;;;;;19.67;15.33;;;;;;;;4917675;28;44745;-81
2021/11/08 08:03:22;;;;;;;;;19.00;19.00;;;;;;;;4897545;29;45453;-83
2021/11/08 08:05:48;;;;;;;;;18.33;18.33;;;;;;;;4896412;29;47286;-82
2021/11/08 08:08:49;;;;;;;;;;;;;;;;;;;;;
2021/11/08 08:17:35;;;;;;;;;9.00;8.00;;;;;;;;4850399;29;45547;-81
2021/11/08 08:20:16;;;;;;;;;16.67;16.67;;;;;;;;4869313;29;45406;-81
2021/11/08 08:22:42;;;;;;;;;25.00;20.00;;;;;;;;4874773;29;45653;-82
2021/11/08 08:25:57;;;;;;;;;18.33;16.67;;;;;;;;4877204;29;45706;-82
2021/11/08 08:28:28;;;;;;;;;17.67;16.67;;;;;;;;4839884;29;46338;-81
2021/11/08 08:31:14;;;;;;;;;20.67;17.00;;;;;;;;4824541;29;44829;-82
2021/11/08 08:33:46;;;;;;;;;18.00;16.00;;;;;;;;4850695;29;45502;-83
2021/11/08 08:39:49;;;;;;;;;;;;;;;;;;;;;
2021/11/08 08:42:40;;;;;;;;;;;;;;;;;;;;;
2021/11/08 08:48:43;;;;;;;;;;;;;;;;;;;;;
2021/11/08 08:51:52;;;;;;;;;;;;;;;;;;;;;
2021/11/08 08:57:42;;;;;;;;;;;;;;;;;;;;;
2021/11/08 09:06:38;;;;;;;;;;;;;;;;;;;;;
2021/11/08 09:10:10;;;;;;;;;;;;;;;;;;;;;
2021/11/08 09:15:59;;;;;;;;;;;;;;;;;;;;;
2021/11/08 09:18:45;;;;;;;;;16.00;14.67;;;;;;;;4878266;29;73389;-81
2021/11/08 09:21:13;;;;;;;;;19.67;18.67;;;;;;;;4864995;29;45520;-82
2021/11/08 09:24:08;;;;;;;;;;;;;;;;;;;;;
2021/11/08 09:30:21;;;;;;;;;;;;;;;;;;;;;
2021/11/08 09:32:59;;;;;;;;;21.33;18.00;;;;;;;;4854542;29;67897;-82
2021/11/08 09:35:37;;;;;;;;;19.33;17.00;;;;;;;;4840957;29;45491;-82
2021/11/08 09:38:05;;;;;;;;;19.67;16.33;;;;;;;;4842959;29;45453;-82
2021/11/08 09:40:31;;;;;;;;;18.00;18.00;;;;;;;;4893679;29;45066;-82
2021/11/08 09:45:51;;;;;;;;;19.00;19.00;;;;;;;;4895278;29;45406;-82
2021/11/08 09:48:18;;;;;;;;;22.67;19.67;;;;;;;;4878568;29;47025;-82
2021/11/08 09:50:49;;;;;;;;;20.33;20.00;;;;;;;;4878155;29;45721;-81
2021/11/08 09:53:45;;;;;;;;;18.33;17.67;;;;;;;;4877395;29;44839;-83
2021/11/08 09:56:40;;;;;;;;;19.33;19.00;;;;;;;;4895856;29;44892;-83
2021/11/08 09:59:13;;;;;;;;;21.00;20.33;;;;;;;;4899531;29;45645;-85
2021/11/08 10:02:05;;;;;;;;;22.00;19.67;;;;;;;;4896572;29;45528;-83
2021/11/08 10:04:45;;;;;;;;;25.67;21.00;;;;;;;;4855491;29;45406;-81
2021/11/08 10:07:21;;;;;;;;;25.67;21.33;;;;;;;;4841809;29;45407;-82
2021/11/08 10:10:28;;;;;;;;;;;;;;;;;;;;;
2021/11/08 10:13:05;;;;;;;;;22.67;22.67;;;;;;;;4826556;29;72298;-83
2021/11/08 10:15:39;;;;;;;;;24.67;23.33;;;;;;;;4842459;29;44857;-81
2021/11/08 10:18:40;;;;;;;;;16.33;16.33;;;;;;;;4844141;29;44915;-81
2021/11/08 10:31:07;;;;;;;;;16.67;15.67;;;;;;;;4885240;29;45365;-83
2021/11/08 10:34:07;;;;;;;;;16.00;15.00;;;;;;;;4898167;29;45187;-82
2021/11/08 10:37:01;;;;;;;;;19.00;17.33;;;;;;;;4891228;28;45414;-83
2021/11/08 10:39:36;;;;;;;;;20.00;18.67;;;;;;;;4912235;28;44889;-82
2021/11/08 10:42:04;;;;;;;;;22.67;16.33;;;;;;;;4918463;28;44868;-82
2021/11/08 10:44:33;;;;;;;;;18.67;15.33;;;;;;;;4893895;29;46658;-82
2021/11/08 10:59:36;;;;;;;;;15.33;13.00;;;;;;;;4843194;29;45723;-83
2021/11/08 11:02:06;;;;;;;;;14.00;11.33;;;;;;;;4859716;29;44764;-83
2021/11/08 11:10:34;;;;;;;;;12.33;12.33;;;;;;;;4805769;29;44884;-83
2021/11/08 11:13:00;;;;;;;;;10.00;9.33;;;;;;;;4799241;29;45326;-83
2021/11/08 11:15:39;;;;;;;;;16.00;16.00;;;;;;;;4804658;29;44886;-83
2021/11/08 11:18:08;;;;;;;;;13.33;9.67;;;;;;;;4819889;29;47512;-82
2021/11/08 11:20:52;;;;;;;;;10.00;10.00;;;;;;;;4805242;29;44850;-83
2021/11/08 12:35:56;;;;;;;;;4.00;4.00;;;;;;;;4837972;23;45372;-85
2021/11/08 12:38:43;;;;;;;;;3.00;3.00;;;;;;;;4897339;28;45574;-86
2021/11/08 12:48:25;;;;;;;;;2.67;2.67;;;;;;;;4737978;29;45417;-84
2021/11/08 12:59:55;;;;;;;;;5.00;5.00;;;;;;;;5602383;23;45654;-82
2021/11/08 13:06:33;;;;;;;;;5.33;3.00;;;;;;;;4804076;29;45374;-85
2021/11/08 13:15:31;;;;;;;;;5.00;4.67;;;;;;;;4893286;23;46531;-83
2021/11/08 13:18:00;;;;;;;;;3.00;2.67;;;;;;;;4880865;28;45263;-84
2021/11/08 13:21:00;;;;;;;;;;;;;;;;;;;;;
2021/11/08 13:24:09;;;;;;;;;3.33;3.33;;;;;;;;4842371;29;68288;-84
2021/11/08 13:27:30;;;;;;;;;;;;;;;;;;;;;
2021/11/08 13:48:17;;;;;;;;;2.00;2.00;;;;;;;;4929801;23;45558;-83
2021/11/08 13:50:49;;;;;;;;;6.67;3.67;;;;;;;;4910950;28;46335;-83
2021/11/08 13:53:16;;;;;;;;;3.33;3.33;;;;;;;;4914157;28;45182;-83
2021/11/08 13:59:04;;;;;;;;;3.00;2.33;;;;;;;;4899663;29;44981;-83
2021/11/08 14:05:00;;;;;;;;;;;;;;;;;;;;;
2021/11/08 14:07:32;;;;;;;;;3.33;2.00;;;;;;;;4909483;29;68317;-83
2021/11/08 14:17:12;;;;;;;;;4.00;4.00;;;;;;;;4909507;28;45720;-84
2021/11/08 14:19:45;;;;;;;;;4.67;3.67;;;;;;;;4896931;28;45592;-83
2021/11/08 14:22:15;;;;;;;;;3.67;3.67;;;;;;;;4906956;29;45623;-87
2021/11/08 14:24:56;;;;;;;;;3.00;3.00;;;;;;;;4896606;29;45793;-82
2021/11/08 14:33:43;;;;;;;;;3.00;2.00;;;;;;;;5101198;23;45411;-83
2021/11/08 14:36:17;;;;;;;;;1.67;1.67;;;;;;;;4873075;29;47381;-83
2021/11/08 14:38:50;;;;;;;;;3.00;2.00;;;;;;;;4848335;29;45407;-81
2021/11/08 14:41:32;;;;;;;;;;;;;;;;;;;;;
2021/11/08 14:44:34;;;;;;;;;3.33;2.00;;;;;;;;4874070;29;65194;-81
2021/11/08 14:47:14;;;;;;;;;3.33;3.33;;;;;;;;4846522;29;45731;-81
2021/11/08 14:52:42;;;;;;;;;2.00;2.00;;;;;;;;4878136;29;45781;-81
2021/11/08 14:59:13;;;;;;;;;;;;;;;;;;;;;
2021/11/08 15:02:07;;;;;;;;;2.67;2.33;;;;;;;;4873072;29;44980;-81
2021/11/08 15:07:42;;;;;;;;;3.00;3.00;;;;;;;;4714534;30;45079;-83
2021/11/08 15:10:28;;;;;;;;;4.67;2.00;;;;;;;;4713502;30;45804;-82
2021/11/08 15:13:01;;;;;;;;;2.33;2.00;;;;;;;;4711562;30;45574;-84
2021/11/08 15:15:34;;;;;;;;;4.00;4.00;;;;;;;;4712446;30;44989;-83
2021/11/08 15:18:06;;;;;;;;;4.00;2.67;;;;;;;;4713327;30;45512;-82
2021/11/08 15:20:34;;;;;;;;;4.33;3.33;;;;;;;;4727032;29;46102;-83
2021/11/08 15:23:07;;;;;;;;;4.00;3.00;;;;;;;;4771976;29;45494;-83
2021/11/08 15:28:45;;;;;;;;;3.00;1.33;;;;;;;;4739953;29;45077;-83
2021/11/08 15:31:22;;;;;;;;;2.67;2.67;;;;;;;;4744520;29;47953;-83
2021/11/08 15:34:07;;;;;;;;;2.00;2.00;;;;;;;;4758744;29;45472;-81
2021/11/08 15:36:34;;;;;;;;;1.00;1.00;;;;;;;;4731296;30;45905;-81
2021/11/08 16:06:28;;;;;;;;;3.00;3.00;;;;;;;;5276947;23;46352;-83
2021/11/08 16:12:04;;;;;;;;;3.00;3.00;;;;;;;;4840590;29;45094;-82
2021/11/08 16:14:37;;;;;;;;;6.67;6.67;;;;;;;;4820799;29;45500;-84
2021/11/08 16:17:04;;;;;;;;;7.00;4.00;;;;;;;;4822388;29;45470;-83
2021/11/08 16:22:24;;;;;;;;;9.00;8.00;;;;;;;;4842284;29;44799;-82
2021/11/08 16:24:52;;;;;;;;;7.33;5.00;;;;;;;;4847598;29;48370;-83
2021/11/08 16:27:21;;;;;;;;;8.67;5.33;;;;;;;;4832811;29;45468;-83
2021/11/08 16:29:54;;;;;;;;;7.33;5.00;;;;;;;;4836031;29;45602;-82
2021/11/08 16:32:32;;;;;;;;;7.33;7.33;;;;;;;;4820388;29;45265;-83
2021/11/08 16:34:59;;;;;;;;;7.00;5.00;;;;;;;;4818156;29;47873;-82
2021/11/08 16:40:43;;;;;;;;;9.00;9.00;;;;;;;;4839078;29;45514;-82
2021/11/08 16:46:09;;;;;;;;;10.33;9.67;;;;;;;;4837735;29;45989;-82
2021/11/08 16:49:01;;;;;;;;;13.00;11.00;;;;;;;;4842132;29;45486;-82
2021/11/08 16:51:30;;;;;;;;;7.67;7.00;;;;;;;;4816971;29;45725;-83
2021/11/08 16:54:24;;;;;;;;;9.00;9.00;;;;;;;;4840069;29;44784;-82
2021/11/08 17:00:06;;;;;;;;;8.33;6.67;;;;;;;;4838899;29;45458;-81
2021/11/08 17:02:38;;;;;;;;;11.00;9.00;;;;;;;;4838084;29;45558;-80
2021/11/08 17:06:01;;;;;;;;;;;;;;;;;;;;;
2021/11/08 17:17:08;;;;;;;;;24.33;22.33;;;;;;;;4787055;29;45662;-84
2021/11/08 17:19:34;;;;;;;;;26.33;26.00;;;;;;;;4801838;29;45618;-85
2021/11/08 17:22:29;;;;;;;;;23.00;19.33;;;;;;;;4782883;29;45553;-83
2021/11/08 17:24:54;;;;;;;;;23.67;20.33;;;;;;;;4783423;29;45502;-81
2021/11/08 17:41:22;;;;;;;;;28.00;24.00;;;;;;;;5022198;23;46044;-83
2021/11/08 17:44:25;;;;;;;;;;;;;;;;;;;;;
2021/11/08 17:47:42;;;;;;;;;;;;;;;;;;;;;
2021/11/08 17:52:56;;;;;;;;;;;;;;;;;;;;;
2021/11/08 17:55:28;;;;;;;;;30.33;30.00;;;;;;;;4854534;29;72740;-82
2021/11/08 17:58:12;;;;;;;;;28.67;26.67;;;;;;;;4842007;29;44881;-81
2021/11/08 18:00:47;;;;;;;;;28.67;26.67;;;;;;;;4850674;29;45437;-83
2021/11/08 18:03:29;;;;;;;;;29.00;29.00;;;;;;;;4851119;29;47054;-81
2021/11/08 18:11:52;;;;;;;;;37.00;33.33;;;;;;;;4769630;29;45770;-81
2021/11/08 18:14:56;;;;;;;;;43.00;37.00;;;;;;;;4781657;29;48392;-82
2021/11/08 18:17:38;;;;;;;;;;;;;;;;;;;;;
2021/11/08 18:23:36;;;;;;;;;36.67;30.67;;;;;;;;4724643;30;45543;-80
2021/11/08 18:29:13;;;;;;;;;35.33;31.67;;;;;;;;4734063;29;44865;-81
2021/11/08 18:32:22;;;;;;;;;;;;;;;;;;;;;
2021/11/08 18:35:16;;;;;;;;;;;;;;;;;;;;;
2021/11/08 18:38:04;;;;;;;;;;;;;;;;;;;;;
2021/11/08 18:40:48;;;;;;;;;26.67;25.33;;;;;;;;4710209;30;45518;-81
2021/11/08 18:43:30;;;;;;;;;36.00;30.67;;;;;;;;4709568;30;46009;-81
2021/11/08 18:45:56;;;;;;;;;28.00;27.00;;;;;;;;4704942;30;45453;-81
2021/11/08 18:48:34;;;;;;;;;32.33;30.00;;;;;;;;4757476;29;48245;-82
2021/11/08 18:51:39;;;;;;;;;;;;;;;;;;;;;
2021/11/08 18:54:18;;;;;;;;;;;;;;;;;;;;;
2021/11/08 18:56:54;;;;;;;;;32.67;31.33;;;;;;;;4780323;29;45471;-81
2021/11/08 18:59:35;;;;;;;;;;;;;;;;;;;;;
2021/11/08 19:02:10;;;;;;;;;40.00;35.33;;;;;;;;4782041;29;72736;-82
2021/11/08 19:07:50;;;;;;;;;36.00;33.00;;;;;;;;4784086;29;44710;-81
2021/11/08 19:10:48;;;;;;;;;;;;;;;;;;;;;
2021/11/08 19:13:14;;;;;;;;;51.67;41.33;;;;;;;;4802129;29;72613;-82
2021/11/08 19:16:07;;;;;;;;;59.50;47.25;;;;;;;;4802518;29;45576;-81
2021/11/08 19:25:00;;;;;;;;;53.75;44.00;;;;;;;;4803613;29;45401;-81
2021/11/08 19:38:47;;;;;;;;;55.25;45.75;;;;;;;;4934280;28;44763;-81
2021/11/08 19:41:15;;;;;;;;;54.33;43.00;;;;;;;;4915501;28;44992;-81
2021/11/08 19:43:41;;;;;;;;;52.33;42.00;;;;;;;;4932389;28;46767;-81
2021/11/08 19:46:09;;;;;;;;;55.67;46.33;;;;;;;;4915995;28;44938;-81
2021/11/08 19:48:34;;;;;;;;;52.67;43.67;;;;;;;;4914096;28;45417;-81
2021/11/08 19:51:14;;;;;;;;;60.50;49.75;;;;;;;;4916849;28;45653;-81
2021/11/08 19:53:40;;;;;;;;;38.33;36.67;;;;;;;;4914707;28;45521;-81
2021/11/08 19:56:07;;;;;;;;;48.67;42.00;;;;;;;;4932832;28;45546;-82
2021/11/08 19:58:47;;;;;;;;;66.25;51.25;;;;;;;;4888097;29;45538;-81
2021/11/08 20:01:19;;;;;;;;;66.25;50.25;;;;;;;;4892345;29;45414;-81
2021/11/08 20:04:01;;;;;;;;;67.25;51.25;;;;;;;;4875770;29;47248;-82
2021/11/08 20:09:33;;;;;;;;;66.75;54.00;;;;;;;;4889095;29;45589;-82
2021/11/08 20:12:23;;;;;;;;;63.00;52.00;;;;;;;;4889254;29;45813;-82
2021/11/08 20:14:51;;;;;;;;;67.75;52.00;;;;;;;;4888920;29;45485;-82
2021/11/08 20:17:22;;;;;;;;;63.25;52.00;;;;;;;;4889124;29;44923;-82
2021/11/08 20:20:00;;;;;;;;;71.75;55.75;;;;;;;;4891259;29;45423;-82
2021/11/08 20:22:43;;;;;;;;;77.25;58.50;;;;;;;;4877271;29;45487;-81
2021/11/08 20:25:23;;;;;;;;;71.25;55.75;;;;;;;;4876780;29;46472;-81
2021/11/08 20:28:05;;;;;;;;;72.75;57.75;;;;;;;;4877287;29;45471;-81
2021/11/08 20:30:44;;;;;;;;;65.75;52.50;;;;;;;;4928143;28;45600;-82
2021/11/08 20:45:02;;;;;;;;;57.00;47.50;;;;;;;;4872745;29;45499;-81
2021/11/08 21:02:32;;;;;;;;;66.75;53.00;;;;;;;;4818417;29;45562;-81
2021/11/08 21:05:12;;;;;;;;;;;;;;;;;;;;;
2021/11/08 21:14:00;;;;;;;;;63.50;50.00;;;;;;;;4778948;29;45412;-80
2021/11/08 21:16:45;;;;;;;;;59.33;50.00;;;;;;;;4744173;29;45627;-81
2021/11/08 21:19:30;;;;;;;;;58.25;47.25;;;;;;;;4746825;30;45407;-82
2021/11/08 21:24:53;;;;;;;;;63.00;50.75;;;;;;;;4764069;29;45639;-82
2021/11/08 21:28:00;;;;;;;;;;;;;;;;;;;;;
2021/11/08 21:38:37;;;;;;;;;58.00;47.25;;;;;;;;4893581;29;44859;-81
2021/11/08 21:41:05;;;;;;;;;54.33;44.00;;;;;;;;4891718;29;45460;-81
2021/11/08 21:43:38;;;;;;;;;59.50;50.00;;;;;;;;4890618;29;45569;-81
2021/11/08 21:46:10;;;;;;;;;58.00;47.00;;;;;;;;4891012;29;45437;-82
2021/11/08 21:48:37;;;;;;;;;58.75;48.50;;;;;;;;4891035;29;45438;-81
2021/11/08 21:51:11;;;;;;;;;59.00;48.50;;;;;;;;4890656;29;45488;-81
2021/11/08 21:56:25;;;;;;;;;57.00;47.75;;;;;;;;4850531;29;45301;-81
2021/11/08 21:58:50;;;;;;;;;61.50;49.75;;;;;;;;4883275;29;45502;-80
2021/11/08 22:01:46;;;;;;;;;60.50;50.25;;;;;;;;4891032;28;45492;-80
2021/11/08 22:04:14;;;;;;;;;61.25;48.75;;;;;;;;4890146;28;45522;-81
2021/11/08 22:06:40;;;;;;;;;61.00;46.25;;;;;;;;4891259;29;45429;-80
2021/11/08 22:09:29;;;;;;;;;57.75;47.25;;;;;;;;4893324;29;45620;-81
2021/11/08 22:11:54;;;;;;;;;63.50;51.00;;;;;;;;4800357;29;45428;-81
2021/11/08 22:14:51;;;;;;;;;;;;;;;;;;;;;
2021/11/08 22:17:25;;;;;;;;;54.33;46.00;;;;;;;;4815103;29;73068;-81
2021/11/08 22:19:59;;;;;;;;;58.67;46.33;;;;;;;;4817080;29;45583;-81
2021/11/08 22:22:35;;;;;;;;;54.25;45.50;;;;;;;;4817331;29;45328;-81
2021/11/08 22:25:20;;;;;;;;;47.00;42.00;;;;;;;;4801760;29;48107;-81
2021/11/08 22:28:01;;;;;;;;;51.50;42.00;;;;;;;;4815298;29;45675;-80
2021/11/08 22:31:00;;;;;;;;;45.67;39.67;;;;;;;;4800201;29;45212;-81
2021/11/08 22:36:10;;;;;;;;;48.33;42.00;;;;;;;;4890586;28;45483;-82
2021/11/08 22:41:40;;;;;;;;;52.00;44.50;;;;;;;;4853376;29;45885;-81
2021/11/08 22:44:09;;;;;;;;;57.75;46.00;;;;;;;;4837129;29;45902;-81
2021/11/08 22:49:45;;;;;;;;;50.00;42.67;;;;;;;;4741661;29;44853;-82
2021/11/08 22:52:33;;;;;;;;;56.33;46.67;;;;;;;;4742434;29;45546;-81
2021/11/08 22:55:07;;;;;;;;;52.33;43.67;;;;;;;;4742474;29;45634;-81
2021/11/08 22:57:34;;;;;;;;;55.33;46.67;;;;;;;;4743092;29;47235;-82
2021/11/08 22:59:59;;;;;;;;;56.50;48.50;;;;;;;;4742893;29;45665;-82
2021/11/08 23:02:27;;;;;;;;;59.00;48.75;;;;;;;;4742953;29;44865;-82
2021/11/08 23:04:54;;;;;;;;;56.75;42.50;;;;;;;;4744473;29;45543;-81
2021/11/08 23:07:29;;;;;;;;;54.50;46.00;;;;;;;;4744175;29;46863;-81
2021/11/08 23:09:59;;;;;;;;;59.00;44.25;;;;;;;;4745095;29;45492;-82
2021/11/08 23:12:27;;;;;;;;;54.00;42.75;;;;;;;;4782064;29;44955;-82
2021/11/08 23:15:18;;;;;;;;;57.00;47.50;;;;;;;;4801632;29;45417;-82
2021/11/08 23:17:59;;;;;;;;;;;;;;;;;;;;;
2021/11/08 23:20:24;;;;;;;;;59.25;48.25;;;;;;;;4745678;30;71170;-81
2021/11/08 23:22:51;;;;;;;;;65.25;53.50;;;;;;;;4739179;29;45480;-82
2021/11/08 23:25:19;;;;;;;;;58.25;49.25;;;;;;;;4747968;30;45388;-81
2021/11/08 23:27:49;;;;;;;;;64.75;51.00;;;;;;;;4805785;29;45549;-81
2021/11/08 23:30:20;;;;;;;;;60.00;50.25;;;;;;;;4803501;29;45426;-82
2021/11/08 23:32:56;;;;;;;;;60.25;48.50;;;;;;;;4803543;29;45479;-82
2021/11/08 23:38:27;;;;;;;;;57.25;46.50;;;;;;;;4811680;29;45620;-81
2021/11/08 23:41:13;;;;;;;;;54.50;44.75;;;;;;;;4804843;29;45977;-81
2021/11/08 23:47:09;;;;;;;;;;;;;;;;;;;;;
2021/11/08 23:53:11;;;;;;;;;49.50;43.25;;;;;;;;4764797;29;45934;-81
2021/11/08 23:55:47;;;;;;;;;63.50;51.50;;;;;;;;4761310;29;45892;-81
2021/11/08 23:58:18;;;;;;;;;59.00;47.25;;;;;;;;4761559;29;45908;-81
